Terminal Aerodrome Forecast
Issued by NWS Newport/Morehead City, NC

Home | Current Version | Previous Version | Text Only | Print | Product List | Glossary Off
Versions: 1 2 3 4 5 6 7 8 9 10 11 12 13 14

051
FTUS42 KMHX 241123
TAFEWN
TAF
KEWN 241123Z 2412/2512 00000KT P6SM SKC
      TEMPO 2412/2413 2SM BR BKN005
     FM241300 02006KT P6SM SCT050
     FM250900 02003KT P6SM BKN015=

USA.gov is the U.S. government's official web portal to all federal, state and local government web resources and services.